createdAt,value
2023-03-26T00:01:41.702Z,7.10
2023-03-26T00:04:10.666Z,7.80
2023-03-26T00:06:40.088Z,6.40
2023-03-26T00:09:10.829Z,6.70
2023-03-26T00:11:38.760Z,5.80
2023-03-26T00:14:06.733Z,8.20
2023-03-26T00:16:34.756Z,7.60
2023-03-26T00:19:02.796Z,11.60
2023-03-26T00:21:31.788Z,7.40
2023-03-26T00:24:04.622Z,8.40
2023-03-26T00:26:34.204Z,7.70
2023-03-26T00:29:03.778Z,7.00
2023-03-26T00:31:33.031Z,9.60
2023-03-26T00:34:03.713Z,8.10
2023-03-26T00:36:32.184Z,8.10
2023-03-26T00:39:01.311Z,7.30
2023-03-26T00:41:31.060Z,8.80
2023-03-26T00:44:00.492Z,8.30
2023-03-26T00:46:31.491Z,9.10
2023-03-26T00:49:00.285Z,10.10
2023-03-26T00:51:28.821Z,10.30
2023-03-26T00:53:57.964Z,7.40
2023-03-26T00:56:26.470Z,10.20
2023-03-26T00:58:54.406Z,10.80
2023-03-26T01:01:29.201Z,7.70
2023-03-26T01:04:08.299Z,8.00
2023-03-26T01:06:42.254Z,8.10
2023-03-26T01:09:16.052Z,6.40
2023-03-26T01:11:45.343Z,6.50
2023-03-26T01:14:17.903Z,6.90
2023-03-26T01:16:55.205Z,7.50
2023-03-26T01:19:39.337Z,7.30
2023-03-26T01:22:11.211Z,9.30
2023-03-26T01:24:40.377Z,9.80
2023-03-26T01:27:17.999Z,8.10
2023-03-26T01:29:56.672Z,7.50
2023-03-26T01:32:33.765Z,9.50
2023-03-26T01:35:15.107Z,7.60
2023-03-26T01:37:43.003Z,8.00
2023-03-26T01:40:23.729Z,7.90
2023-03-26T01:43:11.010Z,7.30
2023-03-26T01:45:42.700Z,10.50
2023-03-26T01:48:10.817Z,9.50
2023-03-26T01:50:38.893Z,9.30
2023-03-26T01:53:09.002Z,7.60
2023-03-26T01:56:02.423Z,8.20
2023-03-26T01:58:49.885Z,8.50
2023-03-26T02:01:30.435Z,8.60
2023-03-26T02:04:39.775Z,10.00
2023-03-26T02:07:29.498Z,13.20
2023-03-26T02:10:06.948Z,14.80
2023-03-26T02:12:35.570Z,17.20
2023-03-26T02:15:04.757Z,18.80
2023-03-26T02:17:33.312Z,18.90
2023-03-26T02:20:10.764Z,18.20
2023-03-26T02:22:45.973Z,18.30
2023-03-26T02:25:17.907Z,20.00
2023-03-26T02:27:47.163Z,20.40
2023-03-26T02:30:29.773Z,20.40
2023-03-26T02:33:00.164Z,17.00
2023-03-26T02:35:34.664Z,19.30
2023-03-26T02:38:03.043Z,17.10
2023-03-26T02:40:31.045Z,18.20
2023-03-26T02:42:59.107Z,19.50
2023-03-26T02:45:28.766Z,19.30
2023-03-26T02:48:28.530Z,21.50
2023-03-26T02:51:14.711Z,19.00
2023-03-26T02:54:03.937Z,17.00
2023-03-26T02:56:56.279Z,16.70
2023-03-26T02:59:36.019Z,13.70
2023-03-26T03:02:33.141Z,14.50
2023-03-26T03:05:10.662Z,11.00
2023-03-26T03:07:39.124Z,10.10
2023-03-26T03:10:13.820Z,10.50
2023-03-26T03:13:00.514Z,8.80
2023-03-26T03:15:28.613Z,8.80
2023-03-26T03:17:57.017Z,7.90
2023-03-26T03:20:27.386Z,8.80
2023-03-26T03:22:56.064Z,8.40
2023-03-26T03:25:26.141Z,7.20
2023-03-26T03:27:54.619Z,6.90
2023-03-26T03:30:22.777Z,7.30
2023-03-26T03:33:21.479Z,7.40
2023-03-26T03:35:50.609Z,7.40
2023-03-26T03:38:19.625Z,6.80
2023-03-26T03:40:49.843Z,8.40
2023-03-26T03:43:17.864Z,7.90
2023-03-26T03:45:57.675Z,10.20
2023-03-26T03:48:48.279Z,8.80
2023-03-26T03:51:18.426Z,10.70
2023-03-26T03:53:58.605Z,9.50
2023-03-26T03:56:40.706Z,8.80
2023-03-26T03:59:27.115Z,9.40
2023-03-26T04:01:55.112Z,8.40
2023-03-26T04:04:34.787Z,10.30
2023-03-26T04:07:07.428Z,8.40
2023-03-26T04:09:51.224Z,8.50
2023-03-26T04:12:19.982Z,10.40
2023-03-26T04:14:57.209Z,7.50
2023-03-26T04:17:26.240Z,8.60
2023-03-26T04:19:56.304Z,8.90
2023-03-26T04:22:34.770Z,7.70
2023-03-26T04:25:05.364Z,8.20
2023-03-26T04:27:41.843Z,7.70
2023-03-26T04:30:23.602Z,7.20
2023-03-26T04:33:17.491Z,8.50
2023-03-26T04:35:46.182Z,7.50
2023-03-26T04:38:17.601Z,6.60
2023-03-26T04:40:48.474Z,8.40
2023-03-26T04:43:19.261Z,10.70
2023-03-26T04:46:05.295Z,12.10
2023-03-26T04:48:41.167Z,7.10
2023-03-26T04:51:17.957Z,8.80
2023-03-26T04:53:53.373Z,7.50
2023-03-26T04:56:50.029Z,7.90
2023-03-26T04:59:34.483Z,7.30
2023-03-26T05:02:06.242Z,8.70
2023-03-26T05:04:40.283Z,8.20
2023-03-26T05:07:09.569Z,8.20
2023-03-26T05:09:44.975Z,10.10
2023-03-26T05:12:16.620Z,9.20
2023-03-26T05:15:08.996Z,8.90
2023-03-26T05:17:59.752Z,10.60
2023-03-26T05:20:50.329Z,9.60
2023-03-26T05:23:18.509Z,8.60
2023-03-26T05:25:52.115Z,9.20
2023-03-26T05:28:24.448Z,8.30
2023-03-26T05:30:56.444Z,7.00
2023-03-26T05:33:25.977Z,6.40
2023-03-26T05:36:15.678Z,6.70
2023-03-26T05:39:09.928Z,7.70
2023-03-26T05:42:12.929Z,7.30
2023-03-26T05:44:53.602Z,7.90
2023-03-26T05:47:27.499Z,6.90
2023-03-26T05:49:55.900Z,6.00
2023-03-26T05:52:24.224Z,7.40
2023-03-26T05:55:11.405Z,4.50
2023-03-26T05:57:58.007Z,8.20
2023-03-26T06:00:48.897Z,5.90
2023-03-26T06:03:20.020Z,6.90
2023-03-26T06:06:15.521Z,6.80
2023-03-26T06:09:02.277Z,7.90
2023-03-26T06:11:32.057Z,7.10
2023-03-26T06:14:01.155Z,7.70
2023-03-26T06:16:29.170Z,12.10
2023-03-26T06:19:07.169Z,7.00
2023-03-26T06:21:51.092Z,9.60
2023-03-26T06:24:23.054Z,7.70
2023-03-26T06:27:23.324Z,7.60
2023-03-26T06:30:22.962Z,6.40
2023-03-26T06:33:13.671Z,8.60
2023-03-26T06:35:48.856Z,7.30
2023-03-26T06:38:17.754Z,7.20
2023-03-26T06:40:46.135Z,6.30
2023-03-26T06:43:23.147Z,7.70
2023-03-26T06:45:57.056Z,10.90
2023-03-26T06:48:45.367Z,6.00
2023-03-26T06:51:20.693Z,7.50
2023-03-26T06:54:07.419Z,6.80
2023-03-26T06:57:13.839Z,7.90
2023-03-26T07:00:01.011Z,7.90
2023-03-26T07:02:51.806Z,12.80
2023-03-26T07:05:41.223Z,7.60
2023-03-26T07:08:28.260Z,8.10
2023-03-26T07:11:16.748Z,8.20
2023-03-26T07:14:11.372Z,7.60
2023-03-26T07:16:59.899Z,8.80
2023-03-26T07:19:35.798Z,5.90
2023-03-26T07:22:04.317Z,7.70
2023-03-26T07:24:52.886Z,7.30
2023-03-26T07:27:52.288Z,8.90
2023-03-26T07:30:53.297Z,6.10
2023-03-26T07:33:42.445Z,8.90
2023-03-26T07:36:54.387Z,9.40
2023-03-26T07:39:57.892Z,6.90
2023-03-26T07:43:09.761Z,6.70
2023-03-26T07:45:57.529Z,8.60
2023-03-26T07:48:48.012Z,10.60
2023-03-26T07:51:40.634Z,8.50
2023-03-26T07:54:17.564Z,7.70
2023-03-26T07:57:06.495Z,6.80
2023-03-26T08:00:12.366Z,7.60
2023-03-26T08:03:15.164Z,6.30
2023-03-26T08:06:10.770Z,6.70
2023-03-26T08:09:30.211Z,6.80
2023-03-26T08:12:23.916Z,6.00
2023-03-26T08:15:25.705Z,7.10
2023-03-26T08:18:19.871Z,7.80
2023-03-26T08:20:51.332Z,7.40
2023-03-26T08:23:28.376Z,8.60
2023-03-26T08:26:09.465Z,9.70
2023-03-26T08:28:50.760Z,8.90
2023-03-26T08:31:23.451Z,7.10
2023-03-26T08:33:51.725Z,7.30
2023-03-26T08:36:19.918Z,9.30
2023-03-26T08:38:48.549Z,6.80
2023-03-26T08:41:25.676Z,5.60
2023-03-26T08:44:18.571Z,7.50
2023-03-26T08:46:49.492Z,8.30
2023-03-26T08:49:42.809Z,6.50
2023-03-26T08:52:34.761Z,8.20
2023-03-26T08:55:36.587Z,6.50
2023-03-26T08:58:36.163Z,8.30
2023-03-26T09:01:06.788Z,8.80
2023-03-26T09:03:34.716Z,6.30
2023-03-26T09:06:38.991Z,7.60
2023-03-26T09:09:09.690Z,5.10
2023-03-26T09:12:17.035Z,6.00
2023-03-26T09:15:06.757Z,5.60
2023-03-26T09:17:41.555Z,7.30
2023-03-26T09:20:51.111Z,4.80
2023-03-26T09:23:49.758Z,5.00
2023-03-26T09:26:43.231Z,7.20
2023-03-26T09:29:37.041Z,6.00
2023-03-26T09:32:31.054Z,4.70
2023-03-26T09:35:17.701Z,5.50
2023-03-26T09:38:10.733Z,5.80
2023-03-26T09:41:13.872Z,6.50
2023-03-26T09:43:56.483Z,5.60
2023-03-26T09:46:46.672Z,5.20
2023-03-26T09:49:24.791Z,5.50
2023-03-26T09:52:11.489Z,6.40
2023-03-26T09:54:56.910Z,5.90
2023-03-26T09:57:28.587Z,4.70
2023-03-26T10:00:09.922Z,7.50
2023-03-26T10:03:01.502Z,7.80
2023-03-26T10:05:48.678Z,4.80
2023-03-26T10:08:37.827Z,5.60
2023-03-26T10:11:23.565Z,5.80
2023-03-26T10:14:33.288Z,5.20
2023-03-26T10:17:19.733Z,5.80
2023-03-26T10:20:05.026Z,7.30
2023-03-26T10:23:00.744Z,4.70
2023-03-26T10:25:55.082Z,7.40
2023-03-26T10:28:32.833Z,5.70
2023-03-26T10:31:07.956Z,7.90
2023-03-26T10:34:28.144Z,6.20
2023-03-26T10:37:16.479Z,5.40
2023-03-26T10:39:55.613Z,4.90
2023-03-26T10:43:39.917Z,6.20
2023-03-26T10:46:38.469Z,4.90
2023-03-26T10:49:25.421Z,7.20
2023-03-26T10:51:59.134Z,6.50
2023-03-26T10:54:51.664Z,4.60
2023-03-26T10:57:45.111Z,3.60
2023-03-26T11:00:28.053Z,3.60
2023-03-26T11:03:20.945Z,5.90
2023-03-26T11:06:18.847Z,5.70
2023-03-26T11:09:12.356Z,7.20
2023-03-26T11:11:55.519Z,6.10
2023-03-26T11:14:33.892Z,5.40
2023-03-26T11:17:39.539Z,7.60
2023-03-26T11:20:18.229Z,7.70
2023-03-26T11:23:24.049Z,7.10
2023-03-26T11:25:59.830Z,6.40
2023-03-26T11:29:32.334Z,4.90
2023-03-26T11:32:06.214Z,9.80
2023-03-26T11:34:49.473Z,7.40
2023-03-26T11:37:34.172Z,6.70
2023-03-26T11:40:07.436Z,10.40
2023-03-26T11:42:35.865Z,12.80
2023-03-26T11:45:08.292Z,12.70
2023-03-26T11:47:53.838Z,11.70
2023-03-26T11:50:28.661Z,8.50
2023-03-26T11:53:11.665Z,8.90
2023-03-26T11:55:44.382Z,10.10
2023-03-26T11:58:47.559Z,11.70
2023-03-26T12:01:22.824Z,8.20
2023-03-26T12:03:57.656Z,9.40
2023-03-26T12:06:27.661Z,5.80
2023-03-26T12:08:57.095Z,7.50
2023-03-26T12:11:28.519Z,7.40
2023-03-26T12:14:05.726Z,7.90
2023-03-26T12:16:34.633Z,6.60
2023-03-26T12:19:08.288Z,15.30
2023-03-26T12:21:48.479Z,6.50
2023-03-26T12:24:32.110Z,7.90
2023-03-26T12:27:21.608Z,6.70
2023-03-26T12:30:00.118Z,6.60
2023-03-26T12:32:45.263Z,6.50
2023-03-26T12:35:22.720Z,5.40
2023-03-26T12:37:50.842Z,6.50
2023-03-26T12:40:32.670Z,6.20
2023-03-26T12:44:54.714Z,7.60
2023-03-26T12:46:58.954Z,6.40
2023-03-26T12:48:47.515Z,6.50
2023-03-26T12:51:36.237Z,6.00
2023-03-26T12:54:44.811Z,6.50
2023-03-26T12:57:38.941Z,5.80
2023-03-26T13:00:22.923Z,6.90
2023-03-26T13:02:51.433Z,5.50
2023-03-26T13:05:22.430Z,5.10
2023-03-26T13:08:12.662Z,5.40
2023-03-26T13:10:59.552Z,5.00
2023-03-26T13:13:36.405Z,7.50
2023-03-26T13:16:29.944Z,5.80
2023-03-26T13:19:32.845Z,10.20
2023-03-26T13:22:21.918Z,6.90
2023-03-26T13:25:13.625Z,6.20
2023-03-26T13:28:06.515Z,4.90
2023-03-26T13:30:42.417Z,6.20
2023-03-26T13:33:16.112Z,7.70
2023-03-26T13:36:00.691Z,6.80
2023-03-26T13:38:43.701Z,5.70
2023-03-26T13:41:44.197Z,8.10
2023-03-26T13:44:27.179Z,6.40
2023-03-26T13:47:10.997Z,6.70
2023-03-26T13:49:46.753Z,6.40
2023-03-26T13:52:42.487Z,7.80
2023-03-26T13:55:19.766Z,6.00
2023-03-26T13:58:05.101Z,6.80
2023-03-26T14:00:54.789Z,6.00
2023-03-26T14:03:54.105Z,5.90
2023-03-26T14:06:46.883Z,5.80
2023-03-26T14:09:22.998Z,5.40
2023-03-26T14:11:57.748Z,4.50
2023-03-26T14:14:41.563Z,5.60
2023-03-26T14:17:29.020Z,7.70
2023-03-26T14:20:19.992Z,7.10
2023-03-26T14:23:15.937Z,8.50
2023-03-26T14:26:08.691Z,5.90
2023-03-26T14:29:33.686Z,7.10
2023-03-26T14:32:24.565Z,6.00
2023-03-26T14:35:16.790Z,5.90
2023-03-26T14:38:13.083Z,6.10
2023-03-26T14:41:08.839Z,6.40
2023-03-26T14:44:00.121Z,6.80
2023-03-26T14:46:55.361Z,5.80
2023-03-26T14:49:47.712Z,8.10
2023-03-26T14:52:24.998Z,6.70
2023-03-26T14:54:56.059Z,9.30
2023-03-26T14:57:36.484Z,6.20
2023-03-26T15:00:20.059Z,5.30
2023-03-26T15:03:29.928Z,6.80
2023-03-26T15:06:21.216Z,7.10
2023-03-26T15:09:07.580Z,6.70
2023-03-26T15:12:12.512Z,6.20
2023-03-26T15:15:00.194Z,6.90
2023-03-26T15:17:49.988Z,6.10
2023-03-26T15:20:20.892Z,6.00
2023-03-26T15:23:18.149Z,7.70
2023-03-26T15:26:04.798Z,7.70
2023-03-26T15:29:03.992Z,9.90
2023-03-26T15:31:53.583Z,10.10
2023-03-26T15:34:48.688Z,10.10
2023-03-26T15:37:44.580Z,8.80
2023-03-26T15:40:47.333Z,8.10
2023-03-26T15:43:20.218Z,9.90
2023-03-26T15:46:06.868Z,6.80
2023-03-26T15:49:01.084Z,18.70
2023-03-26T15:51:51.038Z,12.70
2023-03-26T15:54:43.689Z,8.60
2023-03-26T15:57:20.001Z,9.20
2023-03-26T16:00:16.905Z,27.30
2023-03-26T16:03:10.149Z,7.90
2023-03-26T16:06:10.497Z,9.30
2023-03-26T16:09:03.609Z,12.50
2023-03-26T16:11:56.510Z,22.30
2023-03-26T16:14:36.481Z,22.20
2023-03-26T16:17:11.825Z,50.30
2023-03-26T16:19:54.942Z,36.70
2023-03-26T16:22:51.988Z,11.40
2023-03-26T16:25:32.808Z,13.00
2023-03-26T16:28:13.032Z,39.30
2023-03-26T16:30:42.236Z,8.50
2023-03-26T16:33:21.450Z,8.70
2023-03-26T16:36:34.406Z,8.60
2023-03-26T16:39:05.656Z,8.20
2023-03-26T16:41:52.576Z,11.20
2023-03-26T16:44:43.783Z,8.70
2023-03-26T16:47:43.040Z,11.80
2023-03-26T16:50:29.199Z,42.00
2023-03-26T16:53:01.065Z,21.00
2023-03-26T16:55:49.400Z,24.30
2023-03-26T16:58:31.093Z,36.10
2023-03-26T17:01:11.001Z,16.10
2023-03-26T17:03:50.053Z,9.50
2023-03-26T17:06:56.847Z,9.70
2023-03-26T17:09:37.982Z,9.30
2023-03-26T17:12:31.828Z,9.50
2023-03-26T17:15:21.162Z,13.00
2023-03-26T17:18:26.346Z,16.30
2023-03-26T17:20:58.674Z,17.00
2023-03-26T17:23:41.490Z,26.80
2023-03-26T17:26:24.100Z,21.80
2023-03-26T17:29:28.657Z,18.90
2023-03-26T17:32:01.171Z,19.60
2023-03-26T17:34:38.619Z,18.70
2023-03-26T17:37:19.022Z,17.40
2023-03-26T17:39:47.120Z,17.50
2023-03-26T17:42:30.724Z,21.30
2023-03-26T17:45:01.903Z,19.00
2023-03-26T17:47:39.587Z,27.30
2023-03-26T17:50:14.784Z,26.60
2023-03-26T17:52:55.697Z,21.30
2023-03-26T17:55:30.637Z,18.80
2023-03-26T17:58:01.239Z,21.80
2023-03-26T18:00:40.142Z,20.20
2023-03-26T18:03:18.941Z,18.20
2023-03-26T18:05:49.220Z,23.90
2023-03-26T18:08:39.284Z,25.20
2023-03-26T18:11:25.656Z,30.90
2023-03-26T18:14:02.359Z,35.00
2023-03-26T18:16:41.832Z,39.50
2023-03-26T18:19:18.553Z,40.90
2023-03-26T18:21:50.409Z,45.80
2023-03-26T18:24:22.569Z,44.00
2023-03-26T18:27:11.977Z,47.70
2023-03-26T18:30:02.002Z,45.70
2023-03-26T18:32:33.854Z,52.40
2023-03-26T18:35:15.634Z,43.40
2023-03-26T18:37:46.338Z,50.80
2023-03-26T18:40:23.617Z,73.30
2023-03-26T18:42:55.363Z,67.10
2023-03-26T18:45:23.355Z,50.00
2023-03-26T18:47:58.009Z,40.80
2023-03-26T18:50:36.703Z,36.20
2023-03-26T18:53:08.267Z,24.10
2023-03-26T18:55:39.675Z,29.80
2023-03-26T18:58:23.275Z,28.50
2023-03-26T19:00:55.172Z,25.60
2023-03-26T19:03:24.581Z,34.00
2023-03-26T19:05:55.863Z,32.70
2023-03-26T19:08:25.763Z,38.80
2023-03-26T19:10:55.218Z,33.20
2023-03-26T19:13:23.465Z,44.10
2023-03-26T19:15:54.707Z,34.20
2023-03-26T19:18:26.480Z,29.40
2023-03-26T19:20:59.166Z,28.00
2023-03-26T19:23:32.322Z,28.40
2023-03-26T19:26:04.776Z,39.00
2023-03-26T19:28:41.856Z,29.70
2023-03-26T19:31:12.624Z,27.30
2023-03-26T19:33:42.708Z,21.70
2023-03-26T19:36:13.835Z,16.70
2023-03-26T19:38:49.499Z,17.50
2023-03-26T19:41:23.398Z,14.30
2023-03-26T19:43:55.900Z,13.30
2023-03-26T19:46:26.830Z,12.90
2023-03-26T19:48:57.632Z,13.90
2023-03-26T19:51:36.292Z,15.20
2023-03-26T19:54:14.280Z,18.00
2023-03-26T19:56:43.591Z,16.50
2023-03-26T19:59:11.658Z,17.60
2023-03-26T20:01:39.682Z,17.20
2023-03-26T20:04:12.060Z,17.60
2023-03-26T20:06:43.817Z,18.10
2023-03-26T20:09:13.136Z,20.20
2023-03-26T20:11:41.979Z,19.70
2023-03-26T20:14:14.860Z,22.10
2023-03-26T20:16:45.408Z,23.30
2023-03-26T20:22:03.156Z,16.20
2023-03-26T20:24:32.893Z,16.10
2023-03-26T20:27:00.812Z,14.10
2023-03-26T20:29:29.480Z,12.20
2023-03-26T20:31:57.876Z,12.60
2023-03-26T20:34:26.281Z,10.60
2023-03-26T20:36:56.114Z,11.10
2023-03-26T20:39:24.982Z,10.50
2023-03-26T20:41:54.842Z,16.20
2023-03-26T20:44:23.112Z,13.80
2023-03-26T20:46:51.502Z,10.90
2023-03-26T20:49:22.301Z,10.60
2023-03-26T20:51:50.532Z,10.70
2023-03-26T20:54:21.603Z,11.50
2023-03-26T20:56:50.407Z,14.00
2023-03-26T20:59:28.383Z,15.20
2023-03-26T21:01:57.956Z,15.10
2023-03-26T21:04:29.611Z,13.60
2023-03-26T21:07:07.052Z,16.20
2023-03-26T21:09:39.612Z,19.30
2023-03-26T21:12:38.306Z,27.80
2023-03-26T21:15:10.572Z,19.90
2023-03-26T21:17:51.193Z,17.90
2023-03-26T21:20:20.021Z,18.20
2023-03-26T21:22:54.330Z,19.10
2023-03-26T21:25:34.334Z,25.20
2023-03-26T21:28:28.874Z,24.50
2023-03-26T21:31:06.366Z,27.00
2023-03-26T21:33:34.502Z,21.60
2023-03-26T21:36:04.487Z,18.70
2023-03-26T21:38:33.253Z,21.50
2023-03-26T21:41:03.333Z,23.30
2023-03-26T21:43:31.989Z,16.80
2023-03-26T21:46:00.501Z,16.90
2023-03-26T21:48:29.386Z,16.20
2023-03-26T21:51:02.446Z,15.60
2023-03-26T21:53:30.746Z,15.00
2023-03-26T21:56:32.387Z,12.20
2023-03-26T21:59:11.005Z,17.00
2023-03-26T22:02:13.769Z,15.70
2023-03-26T22:04:56.692Z,18.40
2023-03-26T22:07:35.032Z,14.70
2023-03-26T22:10:03.264Z,15.80
2023-03-26T22:12:31.126Z,14.30
2023-03-26T22:14:59.029Z,13.00
2023-03-26T22:17:27.622Z,15.90
2023-03-26T22:19:56.160Z,14.60
2023-03-26T22:22:26.260Z,16.20
2023-03-26T22:24:54.737Z,13.70
2023-03-26T22:27:22.766Z,12.70
2023-03-26T22:29:50.660Z,14.10
2023-03-26T22:32:18.847Z,11.40
2023-03-26T22:34:46.913Z,18.90
2023-03-26T22:37:16.294Z,17.60
2023-03-26T22:39:44.190Z,19.00
2023-03-26T22:42:12.186Z,18.80
2023-03-26T22:44:40.328Z,18.10
2023-03-26T22:47:09.711Z,17.30
2023-03-26T22:49:37.541Z,16.90
2023-03-26T22:52:07.237Z,20.10
2023-03-26T22:54:36.565Z,17.40
2023-03-26T22:57:08.517Z,18.00
2023-03-26T22:59:36.886Z,17.60
2023-03-26T23:02:04.868Z,19.70
2023-03-26T23:04:32.780Z,19.80
2023-03-26T23:07:00.837Z,19.40
2023-03-26T23:09:29.682Z,21.80
2023-03-26T23:12:26.453Z,20.10
2023-03-26T23:14:54.369Z,17.90
2023-03-26T23:17:22.422Z,18.20
2023-03-26T23:19:50.430Z,18.00
2023-03-26T23:22:18.358Z,15.10
2023-03-26T23:24:46.325Z,15.60
2023-03-26T23:27:14.397Z,14.80
2023-03-26T23:29:42.353Z,40.90
2023-03-26T23:32:24.203Z,22.00
2023-03-26T23:34:53.204Z,17.30
2023-03-26T23:37:23.481Z,15.30
2023-03-26T23:39:52.673Z,15.00
2023-03-26T23:42:28.485Z,14.50
2023-03-26T23:44:57.745Z,13.80
2023-03-26T23:47:25.754Z,17.30
2023-03-26T23:49:53.716Z,15.60
2023-03-26T23:52:21.759Z,14.70
2023-03-26T23:54:49.764Z,15.10
2023-03-26T23:57:18.555Z,16.60
2023-03-26T23:59:46.584Z,15.70
